Terminal Aerodrome Forecast
Issued by NWS

Current Version | Previous Version | Text Only | Print | Product List | Glossary Off
Versions: 1 2 3 4 5 6 7 8 9 10 11 12 13 14 15

906
FTUS41 KILN 221135
TAFLCK
TAF
KLCK 221135Z 2212/2312 21006KT P6SM SCT005 BKN050
      TEMPO 2212/2215 5SM BR OVC005
     FM221500 23008KT P6SM BKN025
     FM221600 24010KT P6SM VCTS BKN035CB
     FM230000 31006KT P6SM BKN070
     FM231000 35006KT 5SM BR OVC006
      AMD NOT SKED=

USA.gov is the U.S. government's official web portal to all federal, state and local government web resources and services.